sensor_id;sensor_type;location;lat;lon;timestamp;pressure;altitude;pressure_sealevel;temperature;humidity
75166;BME280;63747;48.042;10.088;2022-11-20T00:01:48;94701.69;;;2.30;72.12
75166;BME280;63747;48.042;10.088;2022-11-20T00:04:49;94697.56;;;2.28;72.31
75166;BME280;63747;48.042;10.088;2022-11-20T00:07:50;94704.47;;;2.29;72.39
75166;BME280;63747;48.042;10.088;2022-11-20T00:10:51;94705.72;;;2.34;72.54
75166;BME280;63747;48.042;10.088;2022-11-20T00:13:54;94710.69;;;2.47;72.74
75166;BME280;63747;48.042;10.088;2022-11-20T00:16:57;94715.22;;;2.55;72.28
75166;BME280;63747;48.042;10.088;2022-11-20T00:19:58;94716.63;;;2.59;72.20
75166;BME280;63747;48.042;10.088;2022-11-20T00:23:03;94719.91;;;2.61;72.06
75166;BME280;63747;48.042;10.088;2022-11-20T00:26:10;94720.88;;;2.60;71.77
75166;BME280;63747;48.042;10.088;2022-11-20T00:29:11;94728.59;;;2.61;72.03
75166;BME280;63747;48.042;10.088;2022-11-20T00:32:12;94724.88;;;2.64;71.95
75166;BME280;63747;48.042;10.088;2022-11-20T00:35:12;94737.28;;;2.62;71.88
75166;BME280;63747;48.042;10.088;2022-11-20T00:38:13;94734.78;;;2.60;71.93
75166;BME280;63747;48.042;10.088;2022-11-20T00:41:15;94731.06;;;2.63;72.11
75166;BME280;63747;48.042;10.088;2022-11-20T00:44:16;94738.09;;;2.62;72.22
75166;BME280;63747;48.042;10.088;2022-11-20T00:47:17;94737.13;;;2.63;72.33
75166;BME280;63747;48.042;10.088;2022-11-20T00:50:18;94737.94;;;2.64;72.22
75166;BME280;63747;48.042;10.088;2022-11-20T00:53:20;94738.38;;;2.69;72.60
75166;BME280;63747;48.042;10.088;2022-11-20T00:56:21;94742.78;;;2.78;72.34
75166;BME280;63747;48.042;10.088;2022-11-20T00:59:23;94744.84;;;2.84;72.36
75166;BME280;63747;48.042;10.088;2022-11-20T01:02:24;94747.06;;;2.89;72.15
75166;BME280;63747;48.042;10.088;2022-11-20T01:05:25;94748.72;;;2.90;72.41
75166;BME280;63747;48.042;10.088;2022-11-20T01:08:30;94751.88;;;2.93;72.44
75166;BME280;63747;48.042;10.088;2022-11-20T01:11:34;94753.66;;;3.03;72.38
75166;BME280;63747;48.042;10.088;2022-11-20T01:14:36;94745.25;;;3.09;72.15
75166;BME280;63747;48.042;10.088;2022-11-20T01:17:39;94745.94;;;3.11;72.08
75166;BME280;63747;48.042;10.088;2022-11-20T01:20:40;94752.16;;;3.10;71.89
75166;BME280;63747;48.042;10.088;2022-11-20T01:23:42;94746.22;;;3.08;71.84
75166;BME280;63747;48.042;10.088;2022-11-20T01:26:45;94750.78;;;3.06;71.91
75166;BME280;63747;48.042;10.088;2022-11-20T01:29:47;94751.47;;;3.08;71.97
75166;BME280;63747;48.042;10.088;2022-11-20T01:32:48;94748.84;;;3.08;72.04
75166;BME280;63747;48.042;10.088;2022-11-20T01:35:48;94756.03;;;3.06;72.12
75166;BME280;63747;48.042;10.088;2022-11-20T01:38:58;94759.59;;;3.05;72.32
75166;BME280;63747;48.042;10.088;2022-11-20T01:41:59;94748.44;;;3.03;72.11
75166;BME280;63747;48.042;10.088;2022-11-20T01:49:11;94756.28;;;3.03;72.47
75166;BME280;63747;48.042;10.088;2022-11-20T01:52:21;94754.50;;;3.03;72.38
75166;BME280;63747;48.042;10.088;2022-11-20T01:55:30;94757.78;;;3.05;72.49
75166;BME280;63747;48.042;10.088;2022-11-20T01:58:33;94753.25;;;3.07;72.65
75166;BME280;63747;48.042;10.088;2022-11-20T02:01:36;94755.75;;;3.09;72.57
75166;BME280;63747;48.042;10.088;2022-11-20T02:04:39;94747.47;;;3.04;72.57
75166;BME280;63747;48.042;10.088;2022-11-20T02:07:41;94745.53;;;2.96;72.67
75166;BME280;63747;48.042;10.088;2022-11-20T02:10:42;94741.13;;;2.96;72.83
75166;BME280;63747;48.042;10.088;2022-11-20T02:13:43;94739.88;;;2.91;72.94
75166;BME280;63747;48.042;10.088;2022-11-20T02:16:46;94745.00;;;2.92;73.01
75166;BME280;63747;48.042;10.088;2022-11-20T02:19:47;94742.50;;;2.91;73.21
75166;BME280;63747;48.042;10.088;2022-11-20T02:25:57;94737.28;;;3.01;73.09
75166;BME280;63747;48.042;10.088;2022-11-20T02:29:01;94745.13;;;3.01;72.99
75166;BME280;63747;48.042;10.088;2022-11-20T02:32:04;94743.75;;;2.96;73.13
75166;BME280;63747;48.042;10.088;2022-11-20T02:38:20;94739.47;;;3.05;72.96
75166;BME280;63747;48.042;10.088;2022-11-20T02:41:21;94741.97;;;3.07;72.73
75166;BME280;63747;48.042;10.088;2022-11-20T02:44:22;94743.31;;;3.11;72.81
75166;BME280;63747;48.042;10.088;2022-11-20T02:47:23;94738.78;;;3.13;72.74
75166;BME280;63747;48.042;10.088;2022-11-20T02:50:24;94743.22;;;3.12;72.60
75166;BME280;63747;48.042;10.088;2022-11-20T02:53:24;94743.88;;;3.14;72.57
75166;BME280;63747;48.042;10.088;2022-11-20T02:56:25;94739.72;;;3.12;72.38
75166;BME280;63747;48.042;10.088;2022-11-20T02:59:26;94741.69;;;3.10;72.24
75166;BME280;63747;48.042;10.088;2022-11-20T03:02:30;94739.06;;;3.10;72.33
75166;BME280;63747;48.042;10.088;2022-11-20T03:05:31;94734.66;;;3.10;72.25
75166;BME280;63747;48.042;10.088;2022-11-20T03:08:31;94732.75;;;3.12;72.00
75166;BME280;63747;48.042;10.088;2022-11-20T03:11:32;94739.47;;;3.15;71.80
75166;BME280;63747;48.042;10.088;2022-11-20T03:14:34;94730.50;;;3.17;71.89
75166;BME280;63747;48.042;10.088;2022-11-20T03:17:34;94737.38;;;3.18;71.89
75166;BME280;63747;48.042;10.088;2022-11-20T03:20:35;94733.81;;;3.19;71.82
75166;BME280;63747;48.042;10.088;2022-11-20T03:23:37;94743.72;;;3.25;71.89
75166;BME280;63747;48.042;10.088;2022-11-20T03:26:38;94735.03;;;3.25;71.79
75166;BME280;63747;48.042;10.088;2022-11-20T03:29:39;94734.09;;;3.26;71.92
75166;BME280;63747;48.042;10.088;2022-11-20T03:32:40;94735.19;;;3.23;71.58
75166;BME280;63747;48.042;10.088;2022-11-20T03:35:41;94740.00;;;3.28;71.57
75166;BME280;63747;48.042;10.088;2022-11-20T03:38:41;94736.41;;;3.29;71.99
75166;BME280;63747;48.042;10.088;2022-11-20T03:41:42;94741.94;;;3.26;71.85
75166;BME280;63747;48.042;10.088;2022-11-20T03:44:43;94741.25;;;3.24;72.12
75166;BME280;63747;48.042;10.088;2022-11-20T03:47:44;94741.94;;;3.26;72.09
75166;BME280;63747;48.042;10.088;2022-11-20T03:50:45;94739.03;;;3.29;71.97
75166;BME280;63747;48.042;10.088;2022-11-20T03:53:48;94741.66;;;3.29;71.99
75166;BME280;63747;48.042;10.088;2022-11-20T03:56:49;94742.06;;;3.24;72.08
75166;BME280;63747;48.042;10.088;2022-11-20T03:59:50;94740.56;;;3.22;72.04
75166;BME280;63747;48.042;10.088;2022-11-20T04:02:51;94742.63;;;3.18;72.08
75166;BME280;63747;48.042;10.088;2022-11-20T04:05:51;94745.53;;;3.15;72.25
75166;BME280;63747;48.042;10.088;2022-11-20T04:08:56;94736.72;;;3.07;72.23
75166;BME280;63747;48.042;10.088;2022-11-20T04:11:57;94736.84;;;3.05;72.47
75166;BME280;63747;48.042;10.088;2022-11-20T04:14:58;94744.16;;;3.02;72.45
75166;BME280;63747;48.042;10.088;2022-11-20T04:17:58;94740.31;;;2.96;72.52
75166;BME280;63747;48.042;10.088;2022-11-20T04:20:59;94743.50;;;3.00;72.64
75166;BME280;63747;48.042;10.088;2022-11-20T04:24:00;94751.06;;;3.03;72.78
75166;BME280;63747;48.042;10.088;2022-11-20T04:27:01;94742.38;;;3.02;72.74
75166;BME280;63747;48.042;10.088;2022-11-20T04:30:02;94736.03;;;3.05;72.78
75166;BME280;63747;48.042;10.088;2022-11-20T04:33:03;94733.28;;;3.06;72.76
75166;BME280;63747;48.042;10.088;2022-11-20T04:36:12;94734.13;;;3.07;72.71
75166;BME280;63747;48.042;10.088;2022-11-20T04:39:14;94737.81;;;3.04;72.74
75166;BME280;63747;48.042;10.088;2022-11-20T04:42:15;94739.75;;;3.02;72.83
75166;BME280;63747;48.042;10.088;2022-11-20T04:45:28;94731.34;;;2.98;73.04
75166;BME280;63747;48.042;10.088;2022-11-20T04:48:29;94733.69;;;3.02;73.03
75166;BME280;63747;48.042;10.088;2022-11-20T04:51:31;94735.63;;;3.00;72.77
75166;BME280;63747;48.042;10.088;2022-11-20T04:54:31;94740.03;;;2.99;72.93
75166;BME280;63747;48.042;10.088;2022-11-20T04:57:32;94740.84;;;2.90;72.58
75166;BME280;63747;48.042;10.088;2022-11-20T05:00:33;94738.69;;;2.85;72.92
75166;BME280;63747;48.042;10.088;2022-11-20T05:03:33;94741.16;;;2.87;72.76
75166;BME280;63747;48.042;10.088;2022-11-20T05:06:34;94736.16;;;2.84;72.65
75166;BME280;63747;48.042;10.088;2022-11-20T05:09:35;94730.81;;;2.85;72.63
75166;BME280;63747;48.042;10.088;2022-11-20T05:12:35;94725.03;;;2.82;72.67
75166;BME280;63747;48.042;10.088;2022-11-20T05:15:36;94732.72;;;2.83;72.67
75166;BME280;63747;48.042;10.088;2022-11-20T05:18:37;94736.31;;;2.82;72.67
75166;BME280;63747;48.042;10.088;2022-11-20T05:21:38;94733.81;;;2.90;72.59
75166;BME280;63747;48.042;10.088;2022-11-20T05:24:39;94727.50;;;2.93;72.55
75166;BME280;63747;48.042;10.088;2022-11-20T05:27:39;94738.50;;;2.96;72.48
75166;BME280;63747;48.042;10.088;2022-11-20T05:30:40;94745.69;;;2.94;72.53
75166;BME280;63747;48.042;10.088;2022-11-20T05:33:42;94735.63;;;2.90;72.43
75166;BME280;63747;48.042;10.088;2022-11-20T05:36:43;94739.22;;;2.89;72.38
75166;BME280;63747;48.042;10.088;2022-11-20T05:39:44;94744.59;;;2.87;72.61
75166;BME280;63747;48.042;10.088;2022-11-20T05:42:44;94745.81;;;2.83;72.41
75166;BME280;63747;48.042;10.088;2022-11-20T05:45:53;94749.41;;;2.82;72.54
75166;BME280;63747;48.042;10.088;2022-11-20T05:48:55;94752.31;;;2.79;72.66
75166;BME280;63747;48.042;10.088;2022-11-20T05:51:57;94743.75;;;2.77;72.51
75166;BME280;63747;48.042;10.088;2022-11-20T05:54:57;94748.88;;;2.79;72.68
75166;BME280;63747;48.042;10.088;2022-11-20T05:57:58;94754.91;;;2.79;72.65
75166;BME280;63747;48.042;10.088;2022-11-20T06:04:13;94753.00;;;2.81;72.84
75166;BME280;63747;48.042;10.088;2022-11-20T06:07:14;94743.75;;;2.77;72.57
75166;BME280;63747;48.042;10.088;2022-11-20T06:10:14;94742.78;;;2.78;72.61
75166;BME280;63747;48.042;10.088;2022-11-20T06:13:15;94741.84;;;2.79;72.52
75166;BME280;63747;48.042;10.088;2022-11-20T06:16:17;94748.28;;;2.85;72.66
75166;BME280;63747;48.042;10.088;2022-11-20T06:19:18;94747.22;;;2.87;72.54
75166;BME280;63747;48.042;10.088;2022-11-20T06:22:19;94758.06;;;2.83;72.55
75166;BME280;63747;48.042;10.088;2022-11-20T06:25:20;94760.28;;;2.78;72.74
75166;BME280;63747;48.042;10.088;2022-11-20T06:28:20;94760.41;;;2.76;72.92
75166;BME280;63747;48.042;10.088;2022-11-20T06:31:24;94755.31;;;2.75;72.78
75166;BME280;63747;48.042;10.088;2022-11-20T06:34:25;94755.84;;;2.78;72.82
75166;BME280;63747;48.042;10.088;2022-11-20T06:37:25;94755.88;;;2.88;72.61
75166;BME280;63747;48.042;10.088;2022-11-20T06:40:26;94763.59;;;2.89;72.60
75166;BME280;63747;48.042;10.088;2022-11-20T06:43:28;94766.22;;;2.89;72.80
75166;BME280;63747;48.042;10.088;2022-11-20T06:46:29;94768.44;;;2.94;72.82
75166;BME280;63747;48.042;10.088;2022-11-20T06:49:30;94765.94;;;2.92;72.56
75166;BME280;63747;48.042;10.088;2022-11-20T06:52:30;94761.53;;;2.93;72.66
75166;BME280;63747;48.042;10.088;2022-11-20T06:55:31;94763.34;;;2.92;72.50
75166;BME280;63747;48.042;10.088;2022-11-20T06:58:33;94766.78;;;2.93;72.59
75166;BME280;63747;48.042;10.088;2022-11-20T07:01:34;94767.31;;;2.96;72.48
75166;BME280;63747;48.042;10.088;2022-11-20T07:04:35;94773.50;;;3.05;72.23
75166;BME280;63747;48.042;10.088;2022-11-20T07:07:36;94768.25;;;3.05;72.29
75166;BME280;63747;48.042;10.088;2022-11-20T07:10:36;94767.59;;;3.13;72.17
75166;BME280;63747;48.042;10.088;2022-11-20T07:13:37;94767.59;;;3.13;72.06
75166;BME280;63747;48.042;10.088;2022-11-20T07:16:38;94781.91;;;3.09;72.08
75166;BME280;63747;48.042;10.088;2022-11-20T07:19:38;94782.22;;;3.06;72.25
75166;BME280;63747;48.042;10.088;2022-11-20T07:22:39;94788.28;;;3.06;72.21
75166;BME280;63747;48.042;10.088;2022-11-20T07:25:40;94786.59;;;3.05;71.89
75166;BME280;63747;48.042;10.088;2022-11-20T07:28:44;94782.06;;;3.17;71.78
75166;BME280;63747;48.042;10.088;2022-11-20T07:31:45;94782.19;;;3.15;71.55
75166;BME280;63747;48.042;10.088;2022-11-20T07:34:45;94781.09;;;3.18;71.48
75166;BME280;63747;48.042;10.088;2022-11-20T07:37:46;94781.38;;;3.15;71.40
75166;BME280;63747;48.042;10.088;2022-11-20T07:40:48;94787.28;;;3.17;71.48
75166;BME280;63747;48.042;10.088;2022-11-20T07:43:49;94785.78;;;3.24;71.12
75166;BME280;63747;48.042;10.088;2022-11-20T07:46:49;94782.63;;;3.20;71.13
75166;BME280;63747;48.042;10.088;2022-11-20T07:49:50;94790.84;;;3.25;71.06
75166;BME280;63747;48.042;10.088;2022-11-20T07:52:51;94794.59;;;3.23;71.00
75166;BME280;63747;48.042;10.088;2022-11-20T07:55:52;94794.75;;;3.21;71.07
75166;BME280;63747;48.042;10.088;2022-11-20T07:58:53;94791.81;;;3.24;71.30
75166;BME280;63747;48.042;10.088;2022-11-20T08:01:54;94794.03;;;3.29;71.04
75166;BME280;63747;48.042;10.088;2022-11-20T08:04:55;94793.19;;;3.38;71.10
75166;BME280;63747;48.042;10.088;2022-11-20T08:07:56;94794.47;;;3.44;70.80
75166;BME280;63747;48.042;10.088;2022-11-20T08:10:57;94790.75;;;3.46;70.93
75166;BME280;63747;48.042;10.088;2022-11-20T08:14:16;94794.28;;;3.65;70.73
75166;BME280;63747;48.042;10.088;2022-11-20T08:17:17;94797.88;;;3.73;70.54
75166;BME280;63747;48.042;10.088;2022-11-20T08:20:18;94799.38;;;3.66;70.66
75166;BME280;63747;48.042;10.088;2022-11-20T08:23:18;94803.94;;;3.64;70.85
75166;BME280;63747;48.042;10.088;2022-11-20T08:26:21;94801.19;;;3.75;70.67
75166;BME280;63747;48.042;10.088;2022-11-20T08:29:22;94805.16;;;3.79;70.50
75166;BME280;63747;48.042;10.088;2022-11-20T08:32:23;94803.34;;;3.90;70.34
75166;BME280;63747;48.042;10.088;2022-11-20T08:35:24;94802.41;;;4.18;70.10
75166;BME280;63747;48.042;10.088;2022-11-20T08:38:24;94797.41;;;4.25;69.53
75166;BME280;63747;48.042;10.088;2022-11-20T08:41:25;94800.63;;;4.46;69.15
75166;BME280;63747;48.042;10.088;2022-11-20T08:44:30;94787.78;;;4.71;68.64
75166;BME280;63747;48.042;10.088;2022-11-20T08:47:31;94792.22;;;4.88;67.79
75166;BME280;63747;48.042;10.088;2022-11-20T08:50:32;94792.56;;;5.03;67.84
75166;BME280;63747;48.042;10.088;2022-11-20T08:53:32;94794.56;;;5.27;67.55
75166;BME280;63747;48.042;10.088;2022-11-20T08:56:34;94774.81;;;5.40;66.91
75166;BME280;63747;48.042;10.088;2022-11-20T08:59:34;94792.97;;;5.34;66.83
75166;BME280;63747;48.042;10.088;2022-11-20T09:02:35;94789.00;;;4.94;66.26
75166;BME280;63747;48.042;10.088;2022-11-20T09:05:36;94792.88;;;4.72;66.70
75166;BME280;63747;48.042;10.088;2022-11-20T09:08:37;94798.69;;;4.94;67.03
75166;BME280;63747;48.042;10.088;2022-11-20T09:11:37;94802.59;;;5.25;65.76
75166;BME280;63747;48.042;10.088;2022-11-20T09:14:38;94802.44;;;5.27;65.64
75166;BME280;63747;48.042;10.088;2022-11-20T09:17:39;94794.66;;;5.17;65.22
75166;BME280;63747;48.042;10.088;2022-11-20T09:20:39;94799.28;;;5.41;64.82
75166;BME280;63747;48.042;10.088;2022-11-20T09:23:40;94809.78;;;5.77;64.26
75166;BME280;63747;48.042;10.088;2022-11-20T09:26:41;94805.84;;;5.81;63.82
75166;BME280;63747;48.042;10.088;2022-11-20T09:29:42;94806.00;;;5.97;63.52
75166;BME280;63747;48.042;10.088;2022-11-20T09:32:42;94813.44;;;6.10;63.09
75166;BME280;63747;48.042;10.088;2022-11-20T09:35:44;94811.66;;;6.10;62.00
75166;BME280;63747;48.042;10.088;2022-11-20T09:38:45;94811.78;;;6.09;62.74
75166;BME280;63747;48.042;10.088;2022-11-20T09:48:25;94811.91;;;5.99;62.87
75166;BME280;63747;48.042;10.088;2022-11-20T09:54:39;94803.25;;;5.63;62.60
75166;BME280;63747;48.042;10.088;2022-11-20T09:57:43;94804.81;;;5.74;63.14
75166;BME280;63747;48.042;10.088;2022-11-20T10:00:45;94811.09;;;5.98;62.62
75166;BME280;63747;48.042;10.088;2022-11-20T10:07:24;94792.13;;;6.55;61.96
75166;BME280;63747;48.042;10.088;2022-11-20T10:10:35;94791.22;;;6.72;61.16
75166;BME280;63747;48.042;10.088;2022-11-20T10:16:47;94786.16;;;6.95;60.34
75166;BME280;63747;48.042;10.088;2022-11-20T10:23:50;94788.59;;;6.80;60.90
75166;BME280;63747;48.042;10.088;2022-11-20T10:30:20;94781.97;;;6.68;60.89
75166;BME280;63747;48.042;10.088;2022-11-20T10:33:25;94774.94;;;6.43;61.13
75166;BME280;63747;48.042;10.088;2022-11-20T10:36:32;94789.56;;;6.03;61.16
75166;BME280;63747;48.042;10.088;2022-11-20T10:42:55;94787.81;;;5.68;62.79
75166;BME280;63747;48.042;10.088;2022-11-20T10:46:00;94785.53;;;5.47;63.41
75166;BME280;63747;48.042;10.088;2022-11-20T10:49:04;94779.78;;;5.43;63.70
75166;BME280;63747;48.042;10.088;2022-11-20T10:56:04;94792.31;;;5.32;64.07
75166;BME280;63747;48.042;10.088;2022-11-20T10:59:32;94787.50;;;5.45;63.96
75166;BME280;63747;48.042;10.088;2022-11-20T11:02:44;94790.72;;;5.39;63.77
75166;BME280;63747;48.042;10.088;2022-11-20T11:06:06;94787.06;;;5.32;64.21
75166;BME280;63747;48.042;10.088;2022-11-20T11:09:35;94793.38;;;5.39;63.86
75166;BME280;63747;48.042;10.088;2022-11-20T11:12:43;94781.59;;;5.25;63.97
75166;BME280;63747;48.042;10.088;2022-11-20T11:15:45;94778.97;;;5.25;64.48
75166;BME280;63747;48.042;10.088;2022-11-20T11:18:46;94765.00;;;5.25;64.32
75166;BME280;63747;48.042;10.088;2022-11-20T11:21:49;94782.41;;;5.43;64.06
75166;BME280;63747;48.042;10.088;2022-11-20T11:24:53;94772.66;;;5.36;64.45
75166;BME280;63747;48.042;10.088;2022-11-20T11:27:57;94763.41;;;5.50;64.46
75166;BME280;63747;48.042;10.088;2022-11-20T11:30:58;94772.59;;;5.54;64.00
75166;BME280;63747;48.042;10.088;2022-11-20T11:34:13;94762.19;;;5.44;64.29
75166;BME280;63747;48.042;10.088;2022-11-20T11:37:19;94761.38;;;5.43;64.32
75166;BME280;63747;48.042;10.088;2022-11-20T11:40:24;94767.69;;;5.51;64.60
75166;BME280;63747;48.042;10.088;2022-11-20T11:43:30;94763.06;;;5.53;64.37
75166;BME280;63747;48.042;10.088;2022-11-20T11:47:03;94750.09;;;5.51;64.79
75166;BME280;63747;48.042;10.088;2022-11-20T11:53:21;94751.75;;;5.52;64.39
75166;BME280;63747;48.042;10.088;2022-11-20T11:56:24;94747.50;;;5.59;64.72
75166;BME280;63747;48.042;10.088;2022-11-20T11:59:28;94743.94;;;5.68;64.65
75166;BME280;63747;48.042;10.088;2022-11-20T12:05:56;94746.59;;;5.68;65.40
75166;BME280;63747;48.042;10.088;2022-11-20T12:09:02;94741.31;;;5.86;65.28
75166;BME280;63747;48.042;10.088;2022-11-20T12:12:19;94738.25;;;5.99;64.67
75166;BME280;63747;48.042;10.088;2022-11-20T12:15:29;94738.28;;;6.07;64.69
75166;BME280;63747;48.042;10.088;2022-11-20T12:18:30;94731.41;;;6.14;64.57
75166;BME280;63747;48.042;10.088;2022-11-20T12:21:39;94733.69;;;6.09;64.05
75166;BME280;63747;48.042;10.088;2022-11-20T12:24:53;94728.75;;;6.06;64.23
75166;BME280;63747;48.042;10.088;2022-11-20T12:31:04;94731.06;;;6.09;64.14
75166;BME280;63747;48.042;10.088;2022-11-20T12:34:36;94731.88;;;6.10;63.97
75166;BME280;63747;48.042;10.088;2022-11-20T12:37:52;94729.56;;;6.07;63.68
75166;BME280;63747;48.042;10.088;2022-11-20T12:41:05;94727.22;;;5.95;63.85
75166;BME280;63747;48.042;10.088;2022-11-20T12:57:57;94720.00;;;5.71;66.31
75166;BME280;63747;48.042;10.088;2022-11-20T13:01:00;94715.00;;;5.86;66.19
75166;BME280;63747;48.042;10.088;2022-11-20T13:07:39;94710.06;;;6.17;66.09
75166;BME280;63747;48.042;10.088;2022-11-20T13:14:11;94696.78;;;5.93;66.11
75166;BME280;63747;48.042;10.088;2022-11-20T13:17:36;94693.81;;;5.88;66.20
75166;BME280;63747;48.042;10.088;2022-11-20T13:20:43;94698.84;;;5.81;66.41
75166;BME280;63747;48.042;10.088;2022-11-20T13:23:44;94701.28;;;5.83;66.13
75166;BME280;63747;48.042;10.088;2022-11-20T13:26:46;94696.38;;;5.80;66.07
75166;BME280;63747;48.042;10.088;2022-11-20T13:30:00;94687.63;;;5.71;65.82
75166;BME280;63747;48.042;10.088;2022-11-20T13:33:07;94686.00;;;5.78;65.90
75166;BME280;63747;48.042;10.088;2022-11-20T13:36:24;94678.28;;;5.77;65.74
75166;BME280;63747;48.042;10.088;2022-11-20T13:39:35;94679.94;;;5.78;65.72
75166;BME280;63747;48.042;10.088;2022-11-20T13:42:39;94671.84;;;5.71;65.55
75166;BME280;63747;48.042;10.088;2022-11-20T13:45:40;94669.78;;;5.57;66.04
75166;BME280;63747;48.042;10.088;2022-11-20T13:48:43;94671.22;;;5.51;66.08
75166;BME280;63747;48.042;10.088;2022-11-20T13:51:56;94673.53;;;5.54;65.82
75166;BME280;63747;48.042;10.088;2022-11-20T13:55:18;94674.69;;;5.52;65.86
75166;BME280;63747;48.042;10.088;2022-11-20T13:58:53;94674.69;;;5.52;65.64
75166;BME280;63747;48.042;10.088;2022-11-20T14:01:57;94668.31;;;5.62;65.47
75166;BME280;63747;48.042;10.088;2022-11-20T14:04:59;94673.22;;;5.83;64.76
75166;BME280;63747;48.042;10.088;2022-11-20T14:08:04;94673.03;;;5.77;64.75
75166;BME280;63747;48.042;10.088;2022-11-20T14:11:27;94671.84;;;5.97;64.77
75166;BME280;63747;48.042;10.088;2022-11-20T14:14:30;94668.34;;;6.31;64.07
75166;BME280;63747;48.042;10.088;2022-11-20T14:17:34;94666.00;;;6.36;63.97
75166;BME280;63747;48.042;10.088;2022-11-20T14:20:37;94667.81;;;6.35;63.77
75166;BME280;63747;48.042;10.088;2022-11-20T14:23:38;94660.19;;;6.08;63.82
75166;BME280;63747;48.042;10.088;2022-11-20T14:26:43;94670.59;;;5.83;64.31
75166;BME280;63747;48.042;10.088;2022-11-20T14:29:45;94676.53;;;5.85;64.24
75166;BME280;63747;48.042;10.088;2022-11-20T14:32:48;94669.41;;;5.78;64.44
75166;BME280;63747;48.042;10.088;2022-11-20T14:35:51;94668.78;;;5.84;64.34
75166;BME280;63747;48.042;10.088;2022-11-20T14:38:52;94665.75;;;5.70;64.00
75166;BME280;63747;48.042;10.088;2022-11-20T14:41:54;94663.34;;;5.51;64.15
75166;BME280;63747;48.042;10.088;2022-11-20T14:44:56;94660.97;;;5.40;64.55
75166;BME280;63747;48.042;10.088;2022-11-20T14:47:59;94662.78;;;5.39;64.36
75166;BME280;63747;48.042;10.088;2022-11-20T14:51:00;94657.69;;;5.38;64.41
75166;BME280;63747;48.042;10.088;2022-11-20T14:54:15;94649.97;;;5.36;64.45
75166;BME280;63747;48.042;10.088;2022-11-20T14:57:31;94653.25;;;5.38;64.26
75166;BME280;63747;48.042;10.088;2022-11-20T15:00:34;94649.13;;;5.36;64.37
75166;BME280;63747;48.042;10.088;2022-11-20T15:03:37;94647.34;;;5.36;64.37
75166;BME280;63747;48.042;10.088;2022-11-20T15:06:50;94647.66;;;5.41;64.00
75166;BME280;63747;48.042;10.088;2022-11-20T15:10:07;94645.88;;;5.42;64.00
75166;BME280;63747;48.042;10.088;2022-11-20T15:13:14;94645.97;;;5.32;64.04
75166;BME280;63747;48.042;10.088;2022-11-20T15:16:21;94654.81;;;5.23;64.04
75166;BME280;63747;48.042;10.088;2022-11-20T15:19:24;94659.47;;;5.11;63.75
75166;BME280;63747;48.042;10.088;2022-11-20T15:22:25;94654.41;;;4.92;63.91
75166;BME280;63747;48.042;10.088;2022-11-20T15:25:25;94656.97;;;4.84;64.00
75166;BME280;63747;48.042;10.088;2022-11-20T15:28:40;94659.22;;;4.79;64.11
75166;BME280;63747;48.042;10.088;2022-11-20T15:31:41;94655.94;;;4.77;64.05
75166;BME280;63747;48.042;10.088;2022-11-20T15:34:43;94647.59;;;4.64;64.44
75166;BME280;63747;48.042;10.088;2022-11-20T15:37:43;94647.53;;;4.55;64.31
75166;BME280;63747;48.042;10.088;2022-11-20T15:40:44;94640.94;;;4.51;64.47
75166;BME280;63747;48.042;10.088;2022-11-20T15:43:45;94636.50;;;4.52;64.60
75166;BME280;63747;48.042;10.088;2022-11-20T15:46:46;94629.78;;;4.49;64.54
75166;BME280;63747;48.042;10.088;2022-11-20T15:49:47;94626.00;;;4.52;64.75
75166;BME280;63747;48.042;10.088;2022-11-20T15:52:48;94626.81;;;4.52;64.65
75166;BME280;63747;48.042;10.088;2022-11-20T15:55:48;94625.78;;;4.45;64.63
75166;BME280;63747;48.042;10.088;2022-11-20T15:58:49;94627.28;;;4.30;64.80
75166;BME280;63747;48.042;10.088;2022-11-20T16:01:50;94625.66;;;4.29;65.21
75166;BME280;63747;48.042;10.088;2022-11-20T16:04:50;94616.41;;;4.25;65.35
75166;BME280;63747;48.042;10.088;2022-11-20T16:07:51;94620.91;;;4.32;65.21
75166;BME280;63747;48.042;10.088;2022-11-20T16:10:52;94618.81;;;4.36;65.20
75166;BME280;63747;48.042;10.088;2022-11-20T16:13:53;94616.19;;;4.36;65.22
75166;BME280;63747;48.042;10.088;2022-11-20T16:17:13;94612.59;;;4.37;65.06
75166;BME280;63747;48.042;10.088;2022-11-20T16:20:13;94601.56;;;4.33;65.32
75166;BME280;63747;48.042;10.088;2022-11-20T16:23:15;94600.91;;;4.31;65.51
75166;BME280;63747;48.042;10.088;2022-11-20T16:26:16;94594.81;;;4.31;65.31
75166;BME280;63747;48.042;10.088;2022-11-20T16:29:17;94589.41;;;4.32;65.30
75166;BME280;63747;48.042;10.088;2022-11-20T16:32:18;94582.69;;;4.30;65.25
75166;BME280;63747;48.042;10.088;2022-11-20T16:35:18;94587.41;;;4.26;65.49
75166;BME280;63747;48.042;10.088;2022-11-20T16:38:19;94584.66;;;4.28;65.56
75166;BME280;63747;48.042;10.088;2022-11-20T16:41:20;94584.56;;;4.20;65.63
75166;BME280;63747;48.042;10.088;2022-11-20T16:44:21;94584.56;;;4.20;65.89
75166;BME280;63747;48.042;10.088;2022-11-20T16:47:22;94581.09;;;4.19;65.61
75166;BME280;63747;48.042;10.088;2022-11-20T16:50:23;94580.88;;;4.13;65.89
75166;BME280;63747;48.042;10.088;2022-11-20T16:53:23;94588.38;;;4.07;66.09
75166;BME280;63747;48.042;10.088;2022-11-20T16:56:25;94588.66;;;4.04;66.12
75166;BME280;63747;48.042;10.088;2022-11-20T16:59:26;94579.69;;;4.07;65.99
75166;BME280;63747;48.042;10.088;2022-11-20T17:02:28;94580.81;;;4.04;66.15
75166;BME280;63747;48.042;10.088;2022-11-20T17:05:29;94587.03;;;4.03;66.28
75166;BME280;63747;48.042;10.088;2022-11-20T17:08:31;94574.22;;;4.00;66.39
75166;BME280;63747;48.042;10.088;2022-11-20T17:11:32;94579.75;;;3.97;66.32
75166;BME280;63747;48.042;10.088;2022-11-20T17:14:33;94577.28;;;3.96;66.40
75166;BME280;63747;48.042;10.088;2022-11-20T17:17:33;94572.19;;;3.94;66.59
75166;BME280;63747;48.042;10.088;2022-11-20T17:20:34;94571.50;;;3.92;66.56
75166;BME280;63747;48.042;10.088;2022-11-20T17:23:37;94567.53;;;3.88;66.56
75166;BME280;63747;48.042;10.088;2022-11-20T17:26:40;94566.72;;;3.88;66.71